メインページ
METAR-TAF:

METAR-TAF

空港 :

カーブル国際空港

カーブル, アフガニスタン

緯度: 34-38N, 経度: 069-12E, 海抜: 1789m

現時点の気象観測

当レポートは53分前の18:50(UTC)に作成
変向風 2kt
気温 21°C
湿度 11%
気圧 1018 hPa
視程10km以上
1,500メートル以下は雲なし、積乱雲なし

METAR: OAKB 181850Z VRB02KT CAVOK 21/M10 Q1018 NOSIG RMK A3008 BLU BLU

時間: 00:13 (19:43 UTC)

予報

当レポートは2時間38分前の17:05(UTC)に作成
予報は18日の 18時(UTC)から 19日の 18時(UTC)まで有効
変向風 2kt
視程10km以上
1,500メートル以下は雲なし、積乱雲なし
19日の 00時(UTC)から 19日の 04時(UTC)まで一時的に
視程: 5000m
煙霧
19日の 08時(UTC)から 19日の 10時(UTC)まで徐々に
の風 12kt
19日の 11時(UTC)から 19日の 16時(UTC)まで一時的に
の風 15kt、最大25ktの突風を伴う

TAF: OAKB 181705Z 1818/1918 VRB02KT CAVOK TEMPO 1900/1904 5000 HZ BECMG 1908/1910 36012KT TEMPO 1911/1916 01015G25KT

4,000以上の空港の気象観測と天気予報(METAR報とTAF報)

利用可能な観測所は地図上に黄色い丸と赤い丸で示す。

丸の上にカーソルを重ねると観測所名を参照できる。

次にクリックすると気象観測と天気予報を参照できる。

マップの切り替え:黒色「×」印の緑ボタンをクリックして拡大、「-」印の緑ボタンをクリックして縮小、緑色の三角印をクリックして隣りの地図に切り替え


METAR-TAF: